Time;durP1;ratioP1;P1;durP2;ratioP2;P2;SDS_P1;SDS_P2;PMS_P1;PMS_P2;Temp;Humidity;BMP_temperature;BMP_pressure;BME280_temperature;BME280_humidity;BME280_pressure;Samples;Min_cycle;Max_cycle;Signal;HPM_P1;HPM_P2
2022/11/16 00:01:25;;;;;;;7.60;4.32;;;;;;;;;;5002401;28;20429;-68
2022/11/16 00:03:52;;;;;;;6.38;4.07;;;;;;;;;;5000714;28;20041;-72
2022/11/16 00:06:19;;;;;;;9.75;4.03;;;;;;;;;;5005343;28;20030;-76
2022/11/16 00:09:20;;;;;;;6.82;4.05;;;;;;;;;;5006501;28;20030;-76
2022/11/16 00:11:30;;;;;;;9.65;4.88;;;;;;;;;;5007195;28;20107;-75
2022/11/16 00:13:55;;;;;;;8.67;4.50;;;;;;;;;;5001338;28;20109;-76
2022/11/16 00:16:21;;;;;;;9.63;4.97;;;;;;;;;;5005549;28;20288;-75
2022/11/16 00:18:46;;;;;;;6.93;4.43;;;;;;;;;;5005304;28;20389;-76
2022/11/16 00:21:11;;;;;;;10.20;4.57;;;;;;;;;;5006756;28;20026;-69
2022/11/16 00:23:39;;;;;;;9.97;4.60;;;;;;;;;;5005984;28;22324;-76
2022/11/16 00:26:06;;;;;;;7.30;3.97;;;;;;;;;;5009749;28;20281;-75
2022/11/16 00:28:31;;;;;;;9.10;4.13;;;;;;;;;;5007977;28;20038;-74
2022/11/16 00:31:00;;;;;;;7.05;4.38;;;;;;;;;;5005709;28;20052;-74
2022/11/16 00:33:26;;;;;;;6.85;3.67;;;;;;;;;;5011374;28;20495;-75
2022/11/16 00:35:51;;;;;;;7.10;3.80;;;;;;;;;;5008717;28;20068;-77
2022/11/16 00:38:16;;;;;;;5.22;3.60;;;;;;;;;;5012414;28;20026;-67
2022/11/16 00:40:42;;;;;;;6.87;4.33;;;;;;;;;;5008730;28;20022;-67
2022/11/16 00:43:07;;;;;;;7.17;3.60;;;;;;;;;;5011873;28;20288;-72
2022/11/16 00:45:32;;;;;;;7.10;3.45;;;;;;;;;;5005835;28;20309;-72
2022/11/16 00:47:57;;;;;;;6.75;3.65;;;;;;;;;;5010432;28;20037;-71
2022/11/16 00:50:23;;;;;;;8.60;4.37;;;;;;;;;;5009370;28;20497;-73
2022/11/16 00:52:48;;;;;;;6.10;3.58;;;;;;;;;;5011474;28;20292;-72
2022/11/16 00:55:13;;;;;;;6.68;4.22;;;;;;;;;;5008898;28;20030;-72
2022/11/16 00:57:38;;;;;;;6.87;3.77;;;;;;;;;;5009275;28;20357;-67
2022/11/16 01:00:04;;;;;;;6.38;3.55;;;;;;;;;;5007303;28;20702;-69
2022/11/16 01:02:29;;;;;;;6.90;3.75;;;;;;;;;;5009851;28;20022;-67
2022/11/16 01:04:54;;;;;;;5.38;3.05;;;;;;;;;;5007248;28;20046;-66
2022/11/16 01:07:20;;;;;;;6.47;3.43;;;;;;;;;;5008167;28;20484;-67
2022/11/16 01:09:45;;;;;;;5.68;3.08;;;;;;;;;;5009534;28;20793;-67
2022/11/16 01:12:11;;;;;;;6.47;3.83;;;;;;;;;;5006180;28;20026;-68
2022/11/16 01:14:38;;;;;;;4.85;3.25;;;;;;;;;;5007368;28;20080;-76
2022/11/16 01:17:03;;;;;;;5.45;3.10;;;;;;;;;;5006749;28;20021;-75
2022/11/16 01:19:29;;;;;;;6.03;3.57;;;;;;;;;;5008267;28;20208;-70
2022/11/16 01:21:54;;;;;;;5.25;3.60;;;;;;;;;;5006492;28;20281;-67
2022/11/16 01:24:19;;;;;;;7.88;3.42;;;;;;;;;;5008384;28;20546;-68
2022/11/16 01:26:44;;;;;;;7.45;4.07;;;;;;;;;;5008523;28;20481;-68
2022/11/16 01:29:10;;;;;;;7.37;4.17;;;;;;;;;;5008085;28;20028;-67
2022/11/16 01:31:35;;;;;;;9.47;3.80;;;;;;;;;;5009753;28;20299;-68
2022/11/16 01:34:00;;;;;;;6.13;3.53;;;;;;;;;;5010428;28;20305;-68
2022/11/16 01:36:25;;;;;;;7.07;4.03;;;;;;;;;;5008358;28;20280;-68
2022/11/16 01:38:51;;;;;;;9.30;3.63;;;;;;;;;;5009794;28;20092;-67
2022/11/16 01:41:17;;;;;;;9.60;4.40;;;;;;;;;;5008348;28;20284;-67
2022/11/16 01:43:58;;;;;;;5.45;3.65;;;;;;;;;;5007221;28;20025;-67
2022/11/16 01:46:23;;;;;;;5.95;3.35;;;;;;;;;;5005593;28;20026;-69
2022/11/16 01:48:51;;;;;;;5.82;3.35;;;;;;;;;;5006890;28;20084;-67
2022/11/16 01:51:17;;;;;;;4.97;3.38;;;;;;;;;;5010590;28;20150;-67
2022/11/16 01:53:42;;;;;;;4.88;3.33;;;;;;;;;;5008965;28;20112;-76
2022/11/16 01:56:07;;;;;;;6.05;4.30;;;;;;;;;;5007359;28;20057;-68
2022/11/16 01:58:33;;;;;;;11.52;3.58;;;;;;;;;;5002102;28;20037;-67
2022/11/16 02:00:58;;;;;;;6.72;4.00;;;;;;;;;;5008203;28;20038;-67
2022/11/16 02:03:24;;;;;;;6.65;3.92;;;;;;;;;;5006808;28;20068;-68
2022/11/16 02:06:04;;;;;;;6.07;3.67;;;;;;;;;;5008854;28;20480;-67
2022/11/16 02:11:29;;;;;;;6.93;3.58;;;;;;;;;;5007258;28;20034;-71
2022/11/16 02:13:54;;;;;;;7.35;4.00;;;;;;;;;;5005483;28;20373;-68
2022/11/16 02:16:38;;;;;;;4.78;3.47;;;;;;;;;;5006283;28;20053;-67
2022/11/16 02:19:06;;;;;;;7.88;4.60;;;;;;;;;;5004006;28;20042;-67
2022/11/16 02:21:31;;;;;;;9.35;3.63;;;;;;;;;;5007316;28;20026;-67
2022/11/16 02:24:10;;;;;;;9.93;3.93;;;;;;;;;;5008490;28;20037;-68
2022/11/16 02:26:45;;;;;;;5.55;3.60;;;;;;;;;;5007330;28;20045;-69
2022/11/16 02:29:29;;;;;;;5.53;3.28;;;;;;;;;;5006585;28;20083;-66
2022/11/16 02:32:00;;;;;;;5.13;3.22;;;;;;;;;;5021651;28;20030;-70
2022/11/16 02:34:29;;;;;;;5.50;3.47;;;;;;;;;;5004662;28;20092;-71
2022/11/16 02:36:55;;;;;;;8.95;4.00;;;;;;;;;;5005150;28;20033;-72
2022/11/16 02:39:23;;;;;;;4.53;2.90;;;;;;;;;;5004607;28;20528;-70
2022/11/16 02:41:49;;;;;;;5.97;3.50;;;;;;;;;;5006620;28;21023;-70
2022/11/16 02:44:17;;;;;;;6.15;3.28;;;;;;;;;;5005271;28;20477;-71
2022/11/16 02:46:45;;;;;;;7.25;3.42;;;;;;;;;;5007118;28;20038;-67
2022/11/16 02:49:11;;;;;;;8.15;3.97;;;;;;;;;;5004202;28;20130;-71
2022/11/16 02:51:37;;;;;;;7.78;3.90;;;;;;;;;;5005610;28;20022;-77
2022/11/16 02:54:07;;;;;;;5.75;3.05;;;;;;;;;;5008069;28;20508;-75
2022/11/16 02:56:59;;;;;;;8.05;3.65;;;;;;;;;;5007465;28;20405;-75
2022/11/16 02:59:26;;;;;;;7.10;3.72;;;;;;;;;;4987642;28;20046;-77
2022/11/16 03:02:01;;;;;;;5.63;3.60;;;;;;;;;;5017121;28;20109;-77
2022/11/16 03:04:30;;;;;;;7.70;3.70;;;;;;;;;;5007685;28;20029;-76
2022/11/16 03:06:57;;;;;;;7.55;3.75;;;;;;;;;;5005836;28;20034;-73
2022/11/16 03:09:27;;;;;;;7.22;3.30;;;;;;;;;;5007097;28;20033;-68
2022/11/16 03:11:58;;;;;;;6.95;3.70;;;;;;;;;;5003185;28;20121;-68
2022/11/16 03:14:29;;;;;;;4.35;2.88;;;;;;;;;;5002061;28;20033;-67
2022/11/16 03:16:56;;;;;;;9.02;3.65;;;;;;;;;;5001569;28;20076;-72
2022/11/16 03:19:32;;;;;;;5.20;2.88;;;;;;;;;;5006584;28;20030;-68
2022/11/16 03:22:00;;;;;;;6.88;3.17;;;;;;;;;;5003472;28;20477;-68
2022/11/16 03:24:25;;;;;;;5.97;3.22;;;;;;;;;;5008353;28;20041;-67
2022/11/16 03:27:10;;;;;;;4.28;2.90;;;;;;;;;;5000046;28;20488;-76
2022/11/16 03:29:43;;;;;;;6.72;3.78;;;;;;;;;;5002840;28;20376;-77
2022/11/16 03:32:19;;;;;;;9.38;3.95;;;;;;;;;;5004094;28;20034;-79
2022/11/16 03:34:50;;;;;;;4.82;2.95;;;;;;;;;;5008425;28;20085;-78
2022/11/16 03:37:15;;;;;;;5.07;3.28;;;;;;;;;;4998954;28;20450;-78
2022/11/16 03:39:41;;;;;;;6.40;3.22;;;;;;;;;;5001245;28;20068;-78
2022/11/16 03:42:10;;;;;;;5.38;3.40;;;;;;;;;;5008079;28;20404;-68
2022/11/16 03:44:35;;;;;;;4.30;2.30;;;;;;;;;;5006796;28;20542;-72
2022/11/16 03:47:01;;;;;;;9.45;3.00;;;;;;;;;;5001739;28;20056;-72
2022/11/16 03:49:28;;;;;;;4.85;2.53;;;;;;;;;;5008315;28;20537;-67
2022/11/16 03:51:54;;;;;;;8.75;4.03;;;;;;;;;;5003933;28;21480;-68
2022/11/16 03:54:19;;;;;;;6.28;3.17;;;;;;;;;;5005078;28;20128;-67
2022/11/16 03:56:44;;;;;;;6.85;2.95;;;;;;;;;;5003285;28;20025;-69
2022/11/16 03:59:09;;;;;;;3.90;2.97;;;;;;;;;;5008045;28;20485;-67
2022/11/16 04:01:36;;;;;;;6.23;3.17;;;;;;;;;;5005012;28;20288;-67
2022/11/16 04:04:01;;;;;;;9.65;3.25;;;;;;;;;;5007020;28;20925;-73
2022/11/16 04:25:40;;;;;;;6.30;2.63;;;;;;;;;;5004446;28;20084;-71
2022/11/16 04:28:15;;;;;;;8.57;2.70;;;;;;;;;;5004211;28;20365;-72
2022/11/16 04:38:53;;;;;;;3.53;2.05;;;;;;;;;;5004966;28;20373;-72
2022/11/16 04:44:02;;;;;;;5.82;2.47;;;;;;;;;;5008797;28;20034;-74
2022/11/16 04:49:11;;;;;;;4.55;2.60;;;;;;;;;;5003661;28;20092;-75
2022/11/16 04:51:36;;;;;;;4.10;2.60;;;;;;;;;;5006506;28;20053;-73
2022/11/16 04:54:02;;;;;;;4.17;2.73;;;;;;;;;;5005373;28;20616;-73
2022/11/16 04:56:27;;;;;;;4.82;2.60;;;;;;;;;;5008644;28;20364;-69
2022/11/16 04:58:52;;;;;;;4.43;2.70;;;;;;;;;;5009094;28;20473;-77
2022/11/16 05:02:06;;;;;;;4.73;2.70;;;;;;;;;;5008391;28;20277;-77
2022/11/16 05:04:03;;;;;;;4.65;2.90;;;;;;;;;;5001047;28;20622;-79
2022/11/16 05:06:28;;;;;;;6.78;2.60;;;;;;;;;;5003822;28;20030;-78
2022/11/16 05:08:53;;;;;;;5.50;2.53;;;;;;;;;;5008407;28;20549;-78
2022/11/16 05:11:18;;;;;;;5.30;2.77;;;;;;;;;;5001362;28;20296;-78
2022/11/16 05:13:43;;;;;;;4.87;3.17;;;;;;;;;;5008623;28;20274;-78
2022/11/16 05:16:09;;;;;;;7.87;3.10;;;;;;;;;;5009649;28;20327;-75
2022/11/16 05:18:34;;;;;;;5.53;2.93;;;;;;;;;;5010140;28;20277;-75
2022/11/16 05:20:59;;;;;;;4.88;2.80;;;;;;;;;;5004229;28;20617;-74
2022/11/16 05:26:08;;;;;;;7.28;3.30;;;;;;;;;;5005799;28;20288;-71
2022/11/16 05:28:34;;;;;;;4.57;2.40;;;;;;;;;;5014021;28;20429;-71
2022/11/16 05:30:59;;;;;;;5.73;3.10;;;;;;;;;;5005253;28;20398;-71
2022/11/16 05:33:24;;;;;;;7.63;3.10;;;;;;;;;;5008153;28;20833;-70
2022/11/16 05:35:50;;;;;;;4.93;2.83;;;;;;;;;;5012944;28;20800;-69
2022/11/16 05:38:15;;;;;;;4.80;2.40;;;;;;;;;;5013555;28;20363;-68
2022/11/16 05:40:40;;;;;;;5.72;2.40;;;;;;;;;;5010804;28;20050;-69
2022/11/16 05:43:06;;;;;;;3.35;1.92;;;;;;;;;;5012306;28;20022;-68
2022/11/16 05:45:31;;;;;;;4.40;2.20;;;;;;;;;;5005126;28;20064;-70
2022/11/16 05:47:56;;;;;;;4.87;2.20;;;;;;;;;;5012376;28;20116;-68
2022/11/16 05:50:21;;;;;;;4.23;2.17;;;;;;;;;;5006530;28;20720;-69
2022/11/16 05:52:47;;;;;;;2.97;2.20;;;;;;;;;;5011760;28;20744;-72
2022/11/16 05:55:12;;;;;;;6.30;2.00;;;;;;;;;;5003912;28;20669;-74
2022/11/16 05:57:37;;;;;;;3.88;2.20;;;;;;;;;;5004847;28;20649;-77
2022/11/16 06:00:03;;;;;;;4.73;2.60;;;;;;;;;;5001659;28;20125;-67
2022/11/16 06:02:28;;;;;;;3.45;2.20;;;;;;;;;;5005679;28;20323;-67
2022/11/16 06:04:53;;;;;;;5.50;2.50;;;;;;;;;;5004465;28;20527;-76
2022/11/16 06:07:18;;;;;;;5.83;2.37;;;;;;;;;;5004491;28;20393;-75
2022/11/16 06:09:44;;;;;;;5.47;2.67;;;;;;;;;;5002867;28;20860;-70
2022/11/16 06:12:10;;;;;;;4.72;2.22;;;;;;;;;;5006137;28;22534;-69
2022/11/16 06:14:35;;;;;;;6.18;2.78;;;;;;;;;;5005721;28;20038;-76
2022/11/16 06:17:01;;;;;;;5.03;2.40;;;;;;;;;;5011190;28;20049;-76
2022/11/16 06:19:26;;;;;;;4.33;2.43;;;;;;;;;;5010355;28;20277;-77
2022/11/16 06:21:51;;;;;;;4.45;2.50;;;;;;;;;;5011645;28;20771;-76
2022/11/16 06:24:16;;;;;;;4.20;2.37;;;;;;;;;;5008449;28;20040;-76
2022/11/16 06:26:42;;;;;;;4.70;2.30;;;;;;;;;;5005803;28;20291;-75
2022/11/16 06:29:07;;;;;;;6.38;2.80;;;;;;;;;;5009469;28;20277;-68
2022/11/16 06:31:32;;;;;;;6.37;3.07;;;;;;;;;;5007578;28;20091;-69
2022/11/16 06:33:57;;;;;;;6.07;3.20;;;;;;;;;;5008036;28;20396;-70
2022/11/16 06:36:22;;;;;;;10.90;2.72;;;;;;;;;;5006509;28;20037;-68
2022/11/16 06:38:48;;;;;;;5.53;3.20;;;;;;;;;;5010159;28;20073;-69
2022/11/16 06:41:13;;;;;;;4.72;2.88;;;;;;;;;;5011031;28;20276;-70
2022/11/16 06:43:38;;;;;;;5.33;2.57;;;;;;;;;;5010971;28;20493;-70
2022/11/16 06:46:03;;;;;;;3.80;2.77;;;;;;;;;;5010996;28;20818;-77
2022/11/16 06:48:29;;;;;;;5.43;3.10;;;;;;;;;;5009512;28;20026;-74
2022/11/16 06:50:54;;;;;;;8.07;2.43;;;;;;;;;;5012183;28;20469;-69
2022/11/16 06:53:20;;;;;;;4.95;2.40;;;;;;;;;;5009823;28;20753;-68
2022/11/16 06:55:45;;;;;;;7.88;2.38;;;;;;;;;;5010547;28;20327;-68
2022/11/16 06:58:10;;;;;;;4.73;2.50;;;;;;;;;;5011680;28;20392;-68
2022/11/16 07:00:36;;;;;;;5.03;2.43;;;;;;;;;;5010773;28;20640;-70
2022/11/16 07:03:02;;;;;;;4.07;2.30;;;;;;;;;;5010274;28;20346;-68
2022/11/16 07:05:27;;;;;;;4.40;2.47;;;;;;;;;;5009616;28;20072;-69
2022/11/16 07:07:55;;;;;;;8.03;3.20;;;;;;;;;;5010946;28;20021;-77
2022/11/16 07:10:21;;;;;;;4.85;2.97;;;;;;;;;;5010686;28;20273;-79
2022/11/16 07:12:46;;;;;;;7.85;3.50;;;;;;;;;;5008031;28;20032;-77
2022/11/16 07:15:12;;;;;;;5.40;3.10;;;;;;;;;;5010143;28;20029;-79
2022/11/16 07:17:37;;;;;;;4.60;2.72;;;;;;;;;;5011370;28;20030;-78
2022/11/16 07:20:02;;;;;;;5.03;2.92;;;;;;;;;;5003502;28;20032;-77
2022/11/16 07:22:28;;;;;;;6.10;3.05;;;;;;;;;;5003774;28;20157;-81
2022/11/16 07:24:53;;;;;;;5.73;3.33;;;;;;;;;;5009960;28;20045;-76
2022/11/16 07:27:18;;;;;;;5.77;2.90;;;;;;;;;;5010349;28;20268;-79
2022/11/16 07:29:43;;;;;;;9.03;3.57;;;;;;;;;;5008708;28;20279;-79
2022/11/16 07:32:08;;;;;;;5.97;3.30;;;;;;;;;;5007046;28;20335;-75
2022/11/16 07:34:34;;;;;;;3.87;2.90;;;;;;;;;;5006970;28;20672;-75
2022/11/16 07:36:59;;;;;;;7.77;3.40;;;;;;;;;;5004795;28;20829;-75
2022/11/16 07:39:24;;;;;;;5.83;3.43;;;;;;;;;;5010897;28;20756;-79
2022/11/16 07:41:52;;;;;;;5.72;2.90;;;;;;;;;;5006761;28;20363;-73
2022/11/16 07:44:17;;;;;;;8.35;3.53;;;;;;;;;;5010056;28;20113;-78
2022/11/16 07:46:43;;;;;;;5.32;2.72;;;;;;;;;;5006942;28;20144;-79
2022/11/16 07:49:15;;;;;;;7.90;3.22;;;;;;;;;;5008653;28;20104;-80
2022/11/16 07:51:40;;;;;;;4.57;2.75;;;;;;;;;;5007587;28;20045;-78
2022/11/16 07:54:05;;;;;;;5.45;3.45;;;;;;;;;;5006516;28;20221;-78
2022/11/16 07:56:31;;;;;;;5.32;3.10;;;;;;;;;;5009148;28;20080;-78
2022/11/16 07:58:57;;;;;;;6.35;3.70;;;;;;;;;;5008867;28;20479;-76
2022/11/16 08:01:23;;;;;;;5.10;2.75;;;;;;;;;;5001914;28;20575;-70
2022/11/16 08:03:51;;;;;;;5.37;2.60;;;;;;;;;;5006160;28;20061;-78
2022/11/16 08:06:20;;;;;;;6.07;3.20;;;;;;;;;;5008020;28;20295;-78
2022/11/16 08:08:45;;;;;;;4.63;2.70;;;;;;;;;;5008450;28;20029;-77
2022/11/16 08:11:11;;;;;;;6.00;2.70;;;;;;;;;;5008523;28;20034;-79
2022/11/16 08:13:38;;;;;;;4.72;2.10;;;;;;;;;;5009606;28;20272;-76
2022/11/16 08:16:06;;;;;;;3.08;2.13;;;;;;;;;;5007661;28;20465;-78
2022/11/16 08:18:31;;;;;;;3.17;2.35;;;;;;;;;;5007050;28;20040;-80
2022/11/16 08:20:58;;;;;;;4.60;1.58;;;;;;;;;;5009741;28;20026;-70
2022/11/16 08:23:23;;;;;;;2.17;1.40;;;;;;;;;;5008620;28;20117;-71
2022/11/16 08:25:48;;;;;;;6.28;1.30;;;;;;;;;;5006971;28;20109;-69
2022/11/16 08:28:13;;;;;;;4.90;1.37;;;;;;;;;;5005065;28;20026;-71
2022/11/16 08:30:38;;;;;;;2.55;1.17;;;;;;;;;;5009693;28;20033;-71
2022/11/16 08:33:04;;;;;;;5.37;1.27;;;;;;;;;;5006897;28;20694;-70
2022/11/16 08:35:29;;;;;;;3.13;1.30;;;;;;;;;;5009068;28;20371;-70
2022/11/16 08:37:54;;;;;;;4.20;1.30;;;;;;;;;;5006603;28;20730;-71
2022/11/16 08:40:19;;;;;;;2.37;1.43;;;;;;;;;;5004771;28;20017;-77
2022/11/16 08:42:45;;;;;;;4.63;1.50;;;;;;;;;;5005006;28;20083;-81
2022/11/16 08:45:10;;;;;;;3.80;1.17;;;;;;;;;;5007227;28;20022;-77
2022/11/16 08:47:35;;;;;;;2.08;1.13;;;;;;;;;;5009956;28;20057;-76
2022/11/16 08:50:00;;;;;;;2.30;1.20;;;;;;;;;;5011104;28;20504;-76
2022/11/16 08:52:26;;;;;;;2.80;1.00;;;;;;;;;;5011396;28;20301;-78
2022/11/16 08:54:51;;;;;;;2.75;1.25;;;;;;;;;;5013030;28;20616;-75
2022/11/16 08:57:17;;;;;;;2.42;1.17;;;;;;;;;;5012020;28;20506;-74
2022/11/16 08:59:42;;;;;;;2.97;0.93;;;;;;;;;;5008890;28;20025;-78
2022/11/16 09:02:08;;;;;;;4.30;1.30;;;;;;;;;;5010528;28;20285;-78
2022/11/16 09:04:33;;;;;;;3.58;1.20;;;;;;;;;;5010914;28;20280;-74
2022/11/16 09:06:58;;;;;;;3.10;1.40;;;;;;;;;;5009610;28;20034;-80
2022/11/16 09:09:24;;;;;;;2.00;1.10;;;;;;;;;;5012144;28;20275;-75
2022/11/16 09:11:51;;;;;;;3.70;1.40;;;;;;;;;;5011060;28;20446;-75
2022/11/16 09:14:16;;;;;;;3.92;1.25;;;;;;;;;;5008516;28;20033;-69
2022/11/16 09:16:41;;;;;;;4.53;0.98;;;;;;;;;;5013503;28;20037;-68
2022/11/16 09:19:07;;;;;;;1.93;0.93;;;;;;;;;;5011329;28;20032;-70
2022/11/16 09:21:32;;;;;;;6.00;1.27;;;;;;;;;;5010616;28;20336;-69
2022/11/16 09:23:57;;;;;;;3.40;1.10;;;;;;;;;;5012363;28;20029;-70
2022/11/16 09:26:23;;;;;;;5.00;1.37;;;;;;;;;;5009201;28;20077;-70
2022/11/16 09:28:54;;;;;;;5.53;1.33;;;;;;;;;;5011733;28;20631;-70
2022/11/16 09:31:19;;;;;;;2.25;1.10;;;;;;;;;;5008511;28;20036;-72
2022/11/16 09:33:46;;;;;;;5.28;1.60;;;;;;;;;;5012208;28;20018;-70
2022/11/16 09:36:11;;;;;;;5.10;1.88;;;;;;;;;;5011037;28;20112;-78
2022/11/16 09:38:41;;;;;;;2.30;1.10;;;;;;;;;;5010472;28;20713;-81
2022/11/16 09:41:09;;;;;;;3.90;1.38;;;;;;;;;;5010222;28;20088;-82
2022/11/16 09:43:57;;;;;;;4.95;1.33;;;;;;;;;;5012773;28;20079;-80
2022/11/16 09:46:23;;;;;;;2.67;1.80;;;;;;;;;;5011281;28;20384;-86
2022/11/16 09:48:49;;;;;;;2.15;0.90;;;;;;;;;;5012881;28;20026;-82
2022/11/16 09:51:15;;;;;;;4.05;1.73;;;;;;;;;;5008013;28;20038;-70
2022/11/16 09:53:49;;;;;;;2.80;1.17;;;;;;;;;;5012540;28;20029;-69
2022/11/16 09:56:20;;;;;;;5.60;1.35;;;;;;;;;;5011520;28;20064;-71
2022/11/16 09:58:51;;;;;;;4.05;1.50;;;;;;;;;;5026701;28;20109;-71
2022/11/16 10:01:22;;;;;;;5.22;1.45;;;;;;;;;;5004930;28;20026;-70
2022/11/16 10:03:49;;;;;;;4.15;1.25;;;;;;;;;;5009832;28;20032;-70
2022/11/16 10:06:28;;;;;;;2.60;1.10;;;;;;;;;;5007435;28;20038;-68
2022/11/16 10:08:55;;;;;;;2.88;1.33;;;;;;;;;;5010240;28;20025;-78
2022/11/16 10:11:56;;;;;;;2.58;1.10;;;;;;;;;;5008736;28;20773;-71
2022/11/16 10:14:34;;;;;;;2.50;1.20;;;;;;;;;;4969913;28;20046;-70
2022/11/16 10:16:59;;;;;;;4.82;1.50;;;;;;;;;;5005498;28;20026;-68
2022/11/16 10:19:27;;;;;;;8.30;1.40;;;;;;;;;;5010086;28;20021;-72
2022/11/16 10:22:02;;;;;;;4.32;1.88;;;;;;;;;;5004279;28;20036;-70
2022/11/16 10:24:53;;;;;;;2.72;1.10;;;;;;;;;;5011150;28;20120;-72
2022/11/16 10:27:40;;;;;;;1.50;1.15;;;;;;;;;;5006318;28;20121;-75
2022/11/16 10:30:16;;;;;;;1.92;0.93;;;;;;;;;;4996724;28;20036;-70
2022/11/16 10:32:50;;;;;;;3.17;1.10;;;;;;;;;;5006498;28;20077;-69
2022/11/16 10:35:18;;;;;;;1.70;0.98;;;;;;;;;;5000605;28;20096;-70
2022/11/16 10:37:50;;;;;;;1.73;1.08;;;;;;;;;;5009336;28;20121;-69
2022/11/16 10:40:44;;;;;;;3.25;1.23;;;;;;;;;;5010033;28;20026;-70
2022/11/16 10:43:13;;;;;;;2.45;1.33;;;;;;;;;;5004231;28;20429;-68
2022/11/16 10:45:42;;;;;;;2.88;1.13;;;;;;;;;;5011029;28;20141;-71
2022/11/16 10:48:21;;;;;;;3.33;1.10;;;;;;;;;;5010904;28;20025;-69
2022/11/16 10:50:47;;;;;;;4.43;1.13;;;;;;;;;;5007017;28;20064;-70
2022/11/16 10:53:14;;;;;;;1.08;0.90;;;;;;;;;;5007515;28;20018;-68
2022/11/16 10:55:39;;;;;;;4.55;1.42;;;;;;;;;;5010432;28;20038;-69
2022/11/16 10:58:05;;;;;;;4.45;1.83;;;;;;;;;;5009146;28;20106;-73
2022/11/16 11:00:33;;;;;;;4.70;1.50;;;;;;;;;;5009996;28;20030;-68
2022/11/16 11:02:58;;;;;;;2.85;1.00;;;;;;;;;;5005304;28;20026;-74
2022/11/16 11:05:25;;;;;;;2.50;1.42;;;;;;;;;;5007712;28;20469;-70
2022/11/16 11:07:58;;;;;;;3.42;1.10;;;;;;;;;;5011461;28;20026;-81
2022/11/16 11:10:28;;;;;;;3.15;1.10;;;;;;;;;;5005525;28;20037;-73
2022/11/16 11:12:53;;;;;;;;;;;;;;;;;;5009502;28;20087;-70
2022/11/16 11:15:21;;;;;;;2.88;1.83;;;;;;;;;;5006368;28;19924;-70
2022/11/16 11:17:46;;;;;;;7.60;2.08;;;;;;;;;;5007669;28;20030;-71
2022/11/16 11:20:14;;;;;;;3.55;1.60;;;;;;;;;;5004297;28;20025;-69
2022/11/16 11:22:57;;;;;;;3.17;1.60;;;;;;;;;;5006611;28;20073;-68
2022/11/16 11:25:31;;;;;;;7.13;1.50;;;;;;;;;;5007411;28;20022;-65
2022/11/16 11:28:05;;;;;;;2.28;2.08;;;;;;;;;;4999353;28;20741;-66
2022/11/16 11:30:31;;;;;;;2.72;1.23;;;;;;;;;;5009445;28;20018;-66
2022/11/16 11:32:57;;;;;;;1.90;1.10;;;;;;;;;;5010197;28;20052;-67
2022/11/16 11:35:23;;;;;;;2.92;1.38;;;;;;;;;;5005142;28;20053;-67
2022/11/16 11:37:51;;;;;;;2.70;1.52;;;;;;;;;;5009724;28;20022;-65
2022/11/16 11:40:21;;;;;;;3.05;1.20;;;;;;;;;;5003432;28;20033;-65
2022/11/16 11:42:54;;;;;;;1.77;0.98;;;;;;;;;;5004166;28;20026;-66
2022/11/16 11:45:22;;;;;;;1.65;1.38;;;;;;;;;;5005171;28;20327;-74
2022/11/16 11:47:47;;;;;;;4.10;1.20;;;;;;;;;;5006978;28;20144;-76
2022/11/16 11:50:32;;;;;;;4.00;1.13;;;;;;;;;;5007552;28;20140;-75
2022/11/16 11:52:57;;;;;;;1.63;1.27;;;;;;;;;;5001840;28;20142;-74
2022/11/16 11:55:22;;;;;;;7.57;0.98;;;;;;;;;;5008018;28;20065;-73
2022/11/16 11:57:49;;;;;;;0.80;0.70;;;;;;;;;;5002130;28;20022;-76
2022/11/16 12:00:16;;;;;;;1.10;0.82;;;;;;;;;;5008135;28;20022;-65
2022/11/16 12:03:11;;;;;;;3.22;1.05;;;;;;;;;;5007875;28;20088;-70
2022/11/16 12:05:55;;;;;;;3.50;0.85;;;;;;;;;;5000966;28;20045;-69
2022/11/16 12:08:26;;;;;;;4.55;0.93;;;;;;;;;;5002686;28;20088;-70
2022/11/16 12:10:54;;;;;;;4.10;1.30;;;;;;;;;;5006613;28;20064;-73
2022/11/16 12:13:19;;;;;;;1.98;0.82;;;;;;;;;;5006280;28;20037;-72
2022/11/16 12:16:03;;;;;;;4.35;1.45;;;;;;;;;;5008833;28;20030;-72
2022/11/16 12:18:47;;;;;;;1.80;0.70;;;;;;;;;;5008779;28;20136;-69
2022/11/16 12:21:13;;;;;;;1.48;0.80;;;;;;;;;;5013004;23;20065;-71
2022/11/16 12:23:57;;;;;;;3.20;0.70;;;;;;;;;;4992425;28;20030;-72
2022/11/16 12:26:34;;;;;;;1.50;0.90;;;;;;;;;;4992735;28;20034;-73
2022/11/16 12:29:18;;;;;;;3.90;1.10;;;;;;;;;;4993481;28;20035;-72
2022/11/16 12:31:58;;;;;;;1.38;0.82;;;;;;;;;;4992016;28;20200;-73
2022/11/16 12:34:27;;;;;;;2.25;1.00;;;;;;;;;;4992085;28;20018;-76
2022/11/16 12:37:15;;;;;;;2.42;1.25;;;;;;;;;;4986350;28;20022;-65
2022/11/16 12:39:52;;;;;;;3.50;1.33;;;;;;;;;;4987601;28;20041;-63
2022/11/16 12:42:40;;;;;;;1.95;1.08;;;;;;;;;;4992012;28;20045;-63
2022/11/16 12:45:12;;;;;;;1.30;0.80;;;;;;;;;;4981437;28;20137;-64
2022/11/16 12:47:45;;;;;;;2.75;1.20;;;;;;;;;;4988834;28;20042;-64
2022/11/16 12:50:22;;;;;;;3.45;1.30;;;;;;;;;;4992921;28;20095;-64
2022/11/16 12:53:01;;;;;;;3.70;0.80;;;;;;;;;;4990481;28;20037;-64
2022/11/16 12:55:42;;;;;;;3.77;0.97;;;;;;;;;;4991604;28;20026;-67
2022/11/16 12:58:19;;;;;;;4.85;0.98;;;;;;;;;;4990436;28;20126;-70
2022/11/16 13:00:44;;;;;;;4.13;0.75;;;;;;;;;;4993821;28;20401;-68
2022/11/16 13:03:28;;;;;;;1.53;0.60;;;;;;;;;;4989246;28;20022;-68
2022/11/16 13:05:53;;;;;;;2.90;1.00;;;;;;;;;;4993712;28;20022;-70
2022/11/16 13:08:34;;;;;;;0.97;0.60;;;;;;;;;;4991681;28;20527;-69
2022/11/16 13:11:03;;;;;;;3.17;1.15;;;;;;;;;;4991714;28;20042;-69
2022/11/16 13:13:28;;;;;;;1.75;0.70;;;;;;;;;;4986259;28;20053;-69
2022/11/16 13:15:55;;;;;;;1.98;0.80;;;;;;;;;;4990676;28;20445;-65
2022/11/16 13:18:21;;;;;;;3.42;0.80;;;;;;;;;;4990356;28;20030;-64
2022/11/16 13:20:55;;;;;;;5.65;0.98;;;;;;;;;;4991599;28;20544;-65
2022/11/16 13:23:36;;;;;;;4.05;1.15;;;;;;;;;;4989844;28;20074;-65
2022/11/16 13:26:09;;;;;;;2.55;1.23;;;;;;;;;;4992785;28;20022;-63
2022/11/16 13:28:53;;;;;;;1.67;0.90;;;;;;;;;;4991979;28;20026;-64
2022/11/16 13:31:18;;;;;;;2.88;1.10;;;;;;;;;;4992278;28;20041;-62
2022/11/16 13:33:47;;;;;;;2.90;1.00;;;;;;;;;;4985403;28;20037;-64
2022/11/16 13:36:31;;;;;;;4.55;1.23;;;;;;;;;;4993103;28;20026;-65
2022/11/16 13:38:56;;;;;;;1.60;1.05;;;;;;;;;;5005758;28;20046;-66
2022/11/16 13:41:25;;;;;;;2.35;0.80;;;;;;;;;;4992278;28;20022;-64
2022/11/16 13:43:50;;;;;;;9.23;1.55;;;;;;;;;;4989452;28;20030;-70
2022/11/16 13:46:16;;;;;;;2.83;0.80;;;;;;;;;;4990214;28;20030;-64
2022/11/16 13:48:44;;;;;;;4.35;1.00;;;;;;;;;;4991875;28;20044;-67
2022/11/16 13:51:17;;;;;;;2.63;1.05;;;;;;;;;;4991542;28;20026;-64
2022/11/16 13:53:49;;;;;;;3.80;0.98;;;;;;;;;;4990410;28;20029;-65
2022/11/16 13:56:15;;;;;;;2.00;0.90;;;;;;;;;;4991064;28;20118;-64
2022/11/16 13:58:45;;;;;;;1.90;0.80;;;;;;;;;;4991560;28;20062;-64
2022/11/16 14:01:14;;;;;;;6.00;1.50;;;;;;;;;;4991345;28;20466;-63
2022/11/16 14:03:40;;;;;;;3.70;1.03;;;;;;;;;;4992482;28;20054;-65
2022/11/16 14:06:26;;;;;;;3.60;0.90;;;;;;;;;;4990948;28;20067;-65
2022/11/16 14:08:52;;;;;;;3.17;1.23;;;;;;;;;;4991618;28;20034;-64
2022/11/16 14:11:36;;;;;;;1.95;0.98;;;;;;;;;;4991840;28;20034;-70
2022/11/16 14:14:08;;;;;;;4.38;1.20;;;;;;;;;;4991250;28;20029;-69
2022/11/16 14:16:42;;;;;;;3.58;1.17;;;;;;;;;;4990404;28;20098;-70
2022/11/16 14:19:27;;;;;;;2.78;1.10;;;;;;;;;;4989416;28;20022;-69
2022/11/16 14:22:02;;;;;;;3.85;1.13;;;;;;;;;;4987037;28;20031;-70
2022/11/16 14:24:30;;;;;;;2.85;1.30;;;;;;;;;;4993817;28;20058;-72
2022/11/16 14:27:12;;;;;;;4.05;1.13;;;;;;;;;;4991314;28;20544;-65
2022/11/16 14:30:02;;;;;;;4.72;1.50;;;;;;;;;;4988068;28;20557;-66
2022/11/16 14:32:30;;;;;;;8.65;1.50;;;;;;;;;;4987831;28;20096;-64
2022/11/16 14:34:59;;;;;;;6.47;1.38;;;;;;;;;;4991286;28;20034;-65
2022/11/16 14:37:27;;;;;;;2.85;1.30;;;;;;;;;;4990965;28;20113;-66
2022/11/16 14:39:57;;;;;;;5.57;1.55;;;;;;;;;;4992182;28;20026;-64
2022/11/16 14:42:30;;;;;;;3.83;1.58;;;;;;;;;;4989260;28;21520;-64
2022/11/16 14:45:03;;;;;;;5.30;1.60;;;;;;;;;;4988786;28;20026;-69
2022/11/16 14:47:31;;;;;;;4.70;1.10;;;;;;;;;;4985236;28;20080;-66
2022/11/16 14:49:56;;;;;;;5.65;1.48;;;;;;;;;;4990155;28;20041;-64
2022/11/16 14:52:34;;;;;;;5.63;1.30;;;;;;;;;;4990728;28;20031;-68
2022/11/16 14:55:01;;;;;;;3.72;1.20;;;;;;;;;;4989504;28;20131;-64
2022/11/16 14:57:26;;;;;;;6.72;1.27;;;;;;;;;;4987187;28;20023;-65
2022/11/16 15:00:06;;;;;;;7.30;1.60;;;;;;;;;;4990225;28;20373;-64
2022/11/16 15:02:32;;;;;;;4.65;1.30;;;;;;;;;;4986840;28;20034;-65
2022/11/16 15:04:58;;;;;;;7.18;2.42;;;;;;;;;;4986236;28;20022;-71
2022/11/16 15:07:23;;;;;;;5.47;1.93;;;;;;;;;;4991221;28;20479;-65
2022/11/16 15:09:51;;;;;;;4.45;1.45;;;;;;;;;;4992164;28;20621;-66
2022/11/16 15:15:10;;;;;;;3.80;1.65;;;;;;;;;;4989261;28;20034;-65
2022/11/16 15:17:36;;;;;;;4.07;1.52;;;;;;;;;;4991533;28;20447;-65
2022/11/16 15:20:21;;;;;;;6.38;2.25;;;;;;;;;;4985909;28;20037;-66
2022/11/16 15:22:49;;;;;;;2.42;1.27;;;;;;;;;;4992269;28;20127;-69
2022/11/16 15:25:30;;;;;;;5.28;1.95;;;;;;;;;;4990744;28;20101;-61
2022/11/16 15:27:57;;;;;;;8.30;1.83;;;;;;;;;;4991989;28;20458;-61
2022/11/16 15:30:29;;;;;;;10.25;2.15;;;;;;;;;;4983852;28;20030;-61
2022/11/16 15:32:55;;;;;;;3.58;1.50;;;;;;;;;;4990122;28;20117;-60
2022/11/16 15:35:22;;;;;;;4.95;2.13;;;;;;;;;;4989938;28;20113;-63